Time;durP1;ratioP1;P1;durP2;ratioP2;P2;SDS_P1;SDS_P2;PMS_P1;PMS_P2;Temp;Humidity;BMP_temperature;BMP_pressure;BME280_temperature;BME280_humidity;BME280_pressure;Samples;Min_cycle;Max_cycle;Signal;HPM_P1;HPM_P2
2023/03/11 00:00:29;;;;;;;1.07;0.97;;;4.70;99.90;;;;;;5004892;28;20415;-71
2023/03/11 00:02:57;;;;;;;2.37;1.13;;;4.70;99.90;;;;;;5004844;28;20422;-70
2023/03/11 00:05:26;;;;;;;1.10;1.00;;;4.70;99.90;;;;;;5004850;28;20458;-71
2023/03/11 00:07:52;;;;;;;1.50;1.30;;;4.60;99.90;;;;;;4997806;28;20807;-74
2023/03/11 00:10:24;;;;;;;1.50;1.17;;;4.60;99.90;;;;;;5015525;28;20407;-73
2023/03/11 00:12:50;;;;;;;1.20;1.10;;;4.50;99.90;;;;;;5004717;28;20466;-72
2023/03/11 00:15:15;;;;;;;1.30;1.20;;;4.50;99.90;;;;;;5012664;28;20422;-71
2023/03/11 00:17:41;;;;;;;2.13;1.30;;;4.50;99.90;;;;;;5024337;28;20244;-72
2023/03/11 00:20:13;;;;;;;1.10;1.00;;;4.50;99.90;;;;;;5007274;28;20174;-72
2023/03/11 00:22:39;;;;;;;1.20;1.10;;;4.50;99.90;;;;;;5020509;28;20704;-71
2023/03/11 00:25:05;;;;;;;1.97;1.20;;;4.50;99.90;;;;;;5022134;28;20409;-70
2023/03/11 00:27:30;;;;;;;1.30;1.20;;;4.60;99.90;;;;;;5005047;28;20217;-72
2023/03/11 00:29:56;;;;;;;1.70;1.47;;;4.70;99.90;;;;;;5004458;28;20187;-71
2023/03/11 00:32:21;;;;;;;1.37;1.20;;;4.70;99.90;;;;;;5010028;28;20179;-72
2023/03/11 00:34:47;;;;;;;3.17;1.60;;;4.70;99.90;;;;;;5013525;28;20245;-71
2023/03/11 00:37:12;;;;;;;3.47;2.10;;;4.70;99.90;;;;;;5001751;28;20587;-72
2023/03/11 00:39:38;;;;;;;1.97;1.70;;;4.70;99.90;;;;;;4986701;28;20176;-71
2023/03/11 00:42:03;;;;;;;1.60;1.50;;;4.60;99.90;;;;;;5018255;28;20578;-71
2023/03/11 00:44:29;;;;;;;1.27;1.17;;;4.60;99.90;;;;;;5021530;28;20768;-71
2023/03/11 00:46:55;;;;;;;2.63;1.50;;;4.60;99.90;;;;;;5005131;28;20192;-72
2023/03/11 00:49:20;;;;;;;1.50;1.40;;;4.60;99.90;;;;;;5014685;28;20190;-71
2023/03/11 00:51:46;;;;;;;1.73;1.37;;;4.60;99.90;;;;;;4986656;28;20270;-70
2023/03/11 00:54:11;;;;;;;1.13;1.03;;;4.70;99.90;;;;;;5016782;28;20187;-73
2023/03/11 00:56:37;;;;;;;1.50;1.40;;;4.70;99.90;;;;;;5017668;28;20215;-71
2023/03/11 00:59:03;;;;;;;2.07;1.30;;;4.80;99.90;;;;;;5004123;28;20183;-71
2023/03/11 01:01:28;;;;;;;3.10;1.70;;;4.70;99.90;;;;;;4989004;28;20579;-70
2023/03/11 01:03:54;;;;;;;2.07;1.47;;;4.70;99.90;;;;;;4998708;28;20217;-71
2023/03/11 01:06:20;;;;;;;1.63;1.53;;;4.80;99.90;;;;;;5012842;28;20219;-72
2023/03/11 01:08:45;;;;;;;2.30;2.10;;;4.80;99.90;;;;;;5004182;28;20180;-71
2023/03/11 01:11:11;;;;;;;1.70;1.60;;;4.60;99.90;;;;;;4992958;28;20346;-70
2023/03/11 01:13:37;;;;;;;2.70;1.80;;;4.60;99.90;;;;;;5023638;28;20233;-71
2023/03/11 01:16:03;;;;;;;2.10;2.00;;;4.40;99.90;;;;;;5023482;28;20199;-71
2023/03/11 01:18:28;;;;;;;1.60;1.50;;;4.40;99.90;;;;;;5023369;28;20433;-72
2023/03/11 01:20:54;;;;;;;2.40;1.50;;;4.40;99.90;;;;;;5003902;28;20266;-73
2023/03/11 01:23:20;;;;;;;2.23;1.97;;;4.50;99.90;;;;;;5007589;28;20641;-73
2023/03/11 01:25:46;;;;;;;2.43;1.70;;;4.60;99.90;;;;;;5017104;28;20176;-71
2023/03/11 01:28:12;;;;;;;1.90;1.70;;;4.50;99.90;;;;;;4998665;28;20469;-70
2023/03/11 01:30:39;;;;;;;1.90;1.80;;;4.50;99.90;;;;;;4986243;28;20184;-71
2023/03/11 01:33:07;;;;;;;2.20;2.00;;;4.40;99.90;;;;;;5003791;28;20403;-71
2023/03/11 01:35:34;;;;;;;4.97;1.63;;;4.20;99.90;;;;;;5003853;28;20470;-69
2023/03/11 01:38:00;;;;;;;3.30;1.77;;;4.20;99.90;;;;;;4985964;28;20478;-70
2023/03/11 01:40:32;;;;;;;2.47;1.70;;;4.10;99.90;;;;;;5017635;28;20497;-72
2023/03/11 01:42:59;;;;;;;1.50;1.40;;;4.00;99.90;;;;;;5022821;28;20417;-71
2023/03/11 01:45:46;;;;;;;1.73;1.63;;;4.00;99.90;;;;;;5025719;28;20414;-69
2023/03/11 01:48:12;;;;;;;2.23;2.03;;;3.90;99.90;;;;;;5027339;28;21215;-72
2023/03/11 01:50:43;;;;;;;2.70;1.50;;;4.00;99.90;;;;;;5026920;28;20412;-70
2023/03/11 01:53:10;;;;;;;3.30;2.30;;;4.00;99.90;;;;;;5010438;28;20172;-71
2023/03/11 01:55:37;;;;;;;1.80;1.70;;;3.90;99.90;;;;;;5007518;28;21022;-72
2023/03/11 01:58:07;;;;;;;4.90;2.00;;;3.80;99.90;;;;;;5008424;28;20500;-69
2023/03/11 02:00:34;;;;;;;2.40;1.63;;;3.90;99.90;;;;;;5020553;28;20900;-69
2023/03/11 02:03:05;;;;;;;3.23;2.30;;;3.80;99.90;;;;;;5007065;28;20410;-70
2023/03/11 02:05:30;;;;;;;3.27;1.70;;;3.80;99.90;;;;;;5010448;28;20500;-71
2023/03/11 02:07:57;;;;;;;2.63;1.70;;;3.90;99.90;;;;;;5020727;28;20514;-70
2023/03/11 02:10:23;;;;;;;4.07;1.70;;;3.90;99.90;;;;;;5020610;28;20176;-70
2023/03/11 02:12:50;;;;;;;2.90;2.00;;;4.00;99.90;;;;;;5008717;28;20465;-71
2023/03/11 02:15:16;;;;;;;2.60;1.90;;;3.90;99.90;;;;;;5004205;28;20468;-71
2023/03/11 02:17:42;;;;;;;1.73;1.60;;;4.00;99.90;;;;;;5019475;28;20466;-72
2023/03/11 02:20:26;;;;;;;5.30;4.10;;;4.10;99.90;;;;;;5011546;28;20414;-70
2023/03/11 02:22:55;;;;;;;10.40;5.40;;;4.00;99.90;;;;;;4992456;28;20999;-72
2023/03/11 02:25:35;;;;;;;5.33;2.43;;;4.10;99.90;;;;;;5019388;28;20782;-72
2023/03/11 02:28:04;;;;;;;5.70;1.87;;;3.90;99.90;;;;;;5019438;28;20434;-72
2023/03/11 02:30:31;;;;;;;2.47;1.67;;;3.80;99.90;;;;;;4999663;28;20885;-71
2023/03/11 02:32:58;;;;;;;3.07;2.17;;;3.80;99.90;;;;;;5008991;28;20967;-72
2023/03/11 02:35:24;;;;;;;5.80;2.27;;;3.60;99.90;;;;;;5021838;28;20682;-72
2023/03/11 02:37:52;;;;;;;4.17;2.30;;;3.60;99.90;;;;;;4990012;28;20474;-71
2023/03/11 02:40:21;;;;;;;1.47;1.37;;;3.60;99.90;;;;;;5022092;28;20432;-72
2023/03/11 02:42:48;;;;;;;5.37;3.03;;;3.60;99.90;;;;;;5027620;28;20940;-74
2023/03/11 02:45:17;;;;;;;3.17;2.30;;;3.50;99.90;;;;;;4991701;28;20510;-71
2023/03/11 02:47:42;;;;;;;2.83;1.90;;;3.50;99.90;;;;;;5016391;28;20443;-73
2023/03/11 02:50:12;;;;;;;2.07;1.70;;;3.40;99.90;;;;;;4994719;28;20426;-72
2023/03/11 02:52:38;;;;;;;3.40;1.50;;;3.50;99.90;;;;;;5012428;28;20190;-72
2023/03/11 02:55:04;;;;;;;3.63;1.50;;;3.60;99.90;;;;;;5002103;28;20418;-71
2023/03/11 02:57:30;;;;;;;3.00;1.60;;;3.60;99.90;;;;;;5013521;28;20207;-70
2023/03/11 02:59:56;;;;;;;2.73;1.70;;;3.50;99.90;;;;;;4999159;28;20414;-72
2023/03/11 03:02:21;;;;;;;2.70;2.03;;;3.50;99.90;;;;;;5023390;28;20479;-71
2023/03/11 03:04:47;;;;;;;4.93;1.83;;;3.50;99.90;;;;;;4991168;28;20194;-71
2023/03/11 03:07:12;;;;;;;3.07;1.90;;;3.30;99.90;;;;;;5006187;28;20214;-72
2023/03/11 03:09:38;;;;;;;2.47;1.83;;;3.20;99.90;;;;;;5006051;28;20207;-71
2023/03/11 03:12:04;;;;;;;2.80;1.77;;;3.10;99.90;;;;;;5005644;28;20753;-74
2023/03/11 03:14:30;;;;;;;1.60;1.10;;;3.00;99.90;;;;;;4994356;28;20236;-71
2023/03/11 03:16:56;;;;;;;2.63;1.40;;;3.10;99.90;;;;;;5017124;28;20474;-72
2023/03/11 03:19:22;;;;;;;3.50;1.60;;;3.10;99.90;;;;;;5013177;28;20407;-72
2023/03/11 03:21:48;;;;;;;3.87;2.17;;;3.10;99.90;;;;;;5006599;28;20186;-70
2023/03/11 03:24:14;;;;;;;4.17;1.70;;;3.20;99.90;;;;;;5025636;28;20258;-71
2023/03/11 03:26:39;;;;;;;3.53;1.40;;;3.20;99.90;;;;;;5013231;28;20529;-70
2023/03/11 03:29:05;;;;;;;1.53;1.43;;;3.00;99.90;;;;;;5011609;28;20184;-70
2023/03/11 03:31:31;;;;;;;3.20;1.50;;;3.00;99.90;;;;;;5017290;28;20262;-70
2023/03/11 03:33:57;;;;;;;5.90;2.03;;;3.00;99.90;;;;;;5007502;28;20187;-71
2023/03/11 03:36:22;;;;;;;3.40;1.60;;;3.10;99.90;;;;;;5024931;28;20464;-72
2023/03/11 03:38:52;;;;;;;2.40;1.40;;;3.00;99.90;;;;;;5002210;28;20577;-71
2023/03/11 03:41:17;;;;;;;2.20;1.30;;;3.00;99.90;;;;;;5005188;28;20406;-71
2023/03/11 03:43:43;;;;;;;1.67;1.57;;;3.00;99.90;;;;;;5005264;28;20414;-71
2023/03/11 03:46:08;;;;;;;2.50;1.30;;;2.90;99.90;;;;;;5022199;28;20193;-71
2023/03/11 03:48:34;;;;;;;2.60;1.97;;;3.00;99.90;;;;;;5005162;28;20610;-72
2023/03/11 03:51:05;;;;;;;6.30;1.40;;;3.10;99.90;;;;;;5004867;28;20707;-72
2023/03/11 03:53:33;;;;;;;1.40;1.30;;;3.30;99.90;;;;;;5005272;28;20446;-70
2023/03/11 03:56:02;;;;;;;2.20;1.67;;;3.30;99.90;;;;;;5017780;28;20446;-70
2023/03/11 03:58:28;;;;;;;2.30;1.53;;;3.20;99.90;;;;;;5016406;28;20415;-72
2023/03/11 04:00:57;;;;;;;5.83;2.37;;;3.10;99.90;;;;;;5012108;28;20440;-71
2023/03/11 04:03:24;;;;;;;3.77;2.37;;;3.00;99.90;;;;;;5010364;28;20664;-71
2023/03/11 04:05:50;;;;;;;3.00;1.47;;;2.90;99.90;;;;;;5024136;28;20417;-72
2023/03/11 04:08:15;;;;;;;2.73;1.33;;;2.90;99.90;;;;;;5004652;28;20485;-72
2023/03/11 04:10:41;;;;;;;1.63;1.30;;;2.90;99.90;;;;;;5005241;28;20180;-71
2023/03/11 04:13:06;;;;;;;4.27;1.73;;;2.80;99.90;;;;;;5004371;28;20609;-72
2023/03/11 04:15:32;;;;;;;2.20;1.60;;;2.90;99.90;;;;;;4987272;28;20180;-72
2023/03/11 04:17:57;;;;;;;3.17;1.60;;;3.00;99.90;;;;;;5029593;22;20231;-71
2023/03/11 04:20:23;;;;;;;2.47;1.50;;;3.00;99.90;;;;;;5003040;28;20184;-75
2023/03/11 04:22:48;;;;;;;2.53;1.37;;;2.90;99.90;;;;;;5003828;28;20722;-70
2023/03/11 04:25:14;;;;;;;2.40;1.63;;;2.90;99.90;;;;;;5003169;28;20551;-71
2023/03/11 04:27:44;;;;;;;3.83;1.80;;;2.80;99.90;;;;;;5003412;28;20342;-71
2023/03/11 04:30:11;;;;;;;1.77;1.43;;;2.90;99.90;;;;;;5003743;28;20318;-70
2023/03/11 04:32:37;;;;;;;2.83;2.10;;;2.90;99.90;;;;;;5003665;28;20434;-70
2023/03/11 04:35:04;;;;;;;3.47;1.83;;;2.80;99.90;;;;;;5003691;28;20454;-70
2023/03/11 04:37:29;;;;;;;4.70;1.40;;;2.80;99.90;;;;;;5003169;28;20247;-71
2023/03/11 04:39:55;;;;;;;3.53;1.70;;;2.80;99.90;;;;;;5003748;28;20503;-72
2023/03/11 04:42:20;;;;;;;2.40;1.40;;;2.80;99.90;;;;;;5003337;28;20658;-71
2023/03/11 04:44:46;;;;;;;2.13;1.50;;;2.80;99.90;;;;;;5003710;28;20180;-70
2023/03/11 04:47:12;;;;;;;4.30;1.40;;;2.80;99.90;;;;;;5003704;28;20203;-70
2023/03/11 04:49:37;;;;;;;3.93;2.20;;;2.80;99.90;;;;;;5003431;28;20183;-75
2023/03/11 04:52:03;;;;;;;3.80;1.50;;;2.80;99.90;;;;;;5003567;28;20186;-71
2023/03/11 04:54:28;;;;;;;2.47;1.60;;;2.70;99.90;;;;;;5003612;28;20749;-70
2023/03/11 04:56:54;;;;;;;4.00;1.60;;;2.70;99.90;;;;;;5002874;28;20203;-74
2023/03/11 04:59:20;;;;;;;2.90;1.90;;;2.70;99.90;;;;;;5003246;28;20558;-69
2023/03/11 05:01:45;;;;;;;4.20;1.63;;;2.70;99.90;;;;;;5003531;28;20553;-71
2023/03/11 05:04:11;;;;;;;1.57;1.40;;;2.60;99.90;;;;;;5002987;28;20179;-70
2023/03/11 05:06:37;;;;;;;4.80;2.53;;;2.50;99.90;;;;;;5003080;28;20202;-71
2023/03/11 05:09:03;;;;;;;4.03;2.03;;;2.60;99.90;;;;;;5003337;28;20476;-74
2023/03/11 05:11:29;;;;;;;2.10;1.50;;;2.60;99.90;;;;;;5002927;28;20192;-72
2023/03/11 05:13:55;;;;;;;9.57;3.70;;;2.60;99.90;;;;;;5003207;28;20429;-71
2023/03/11 05:16:20;;;;;;;5.10;2.53;;;2.60;99.90;;;;;;5002852;28;20454;-75
2023/03/11 05:18:46;;;;;;;11.03;3.20;;;2.70;99.90;;;;;;5002874;28;20182;-70
2023/03/11 05:21:12;;;;;;;47.87;19.70;;;2.60;99.90;;;;;;5002660;28;20175;-69
2023/03/11 05:23:38;;;;;;;55.80;21.53;;;2.40;99.90;;;;;;5002971;28;20172;-72
2023/03/11 05:26:04;;;;;;;14.03;7.07;;;2.40;99.90;;;;;;5003347;28;20282;-70
2023/03/11 05:28:29;;;;;;;5.30;3.43;;;2.50;99.90;;;;;;5002653;28;20680;-73
2023/03/11 05:30:55;;;;;;;2.40;1.60;;;2.70;99.90;;;;;;5003006;28;20564;-71
2023/03/11 05:33:20;;;;;;;4.70;1.40;;;2.60;99.90;;;;;;5003399;28;20187;-71
2023/03/11 05:35:46;;;;;;;1.93;1.30;;;2.60;99.90;;;;;;5003185;28;20266;-73
2023/03/11 05:38:12;;;;;;;3.30;1.60;;;2.70;99.90;;;;;;5002850;28;20960;-73
2023/03/11 05:40:38;;;;;;;2.67;1.40;;;2.60;99.90;;;;;;5003277;28;20209;-71
2023/03/11 05:43:03;;;;;;;1.77;1.40;;;2.60;99.90;;;;;;5002528;28;20497;-74
2023/03/11 05:45:29;;;;;;;2.80;1.50;;;2.60;99.90;;;;;;5003018;28;20285;-70
2023/03/11 05:47:55;;;;;;;2.73;1.87;;;2.60;99.90;;;;;;5002679;28;20613;-71
2023/03/11 05:50:20;;;;;;;4.50;1.50;;;2.60;99.90;;;;;;5003095;28;20185;-70
2023/03/11 05:52:46;;;;;;;3.30;1.20;;;2.60;99.90;;;;;;5002721;28;20187;-70
2023/03/11 05:55:12;;;;;;;5.40;1.70;;;2.60;99.90;;;;;;5002819;28;20547;-72
2023/03/11 05:57:38;;;;;;;2.93;1.37;;;2.70;99.90;;;;;;5002342;28;20207;-70
2023/03/11 06:00:10;;;;;;;1.70;1.33;;;2.70;99.90;;;;;;5002965;28;20187;-70
2023/03/11 06:02:36;;;;;;;3.67;2.00;;;2.70;99.90;;;;;;5002830;28;20401;-73
2023/03/11 06:05:02;;;;;;;1.90;1.60;;;2.60;99.90;;;;;;5002782;28;20403;-73
2023/03/11 06:07:28;;;;;;;3.40;1.60;;;2.70;99.90;;;;;;5002738;28;20572;-71
2023/03/11 06:09:53;;;;;;;3.90;1.90;;;2.70;99.90;;;;;;5002749;28;20572;-71
2023/03/11 06:12:19;;;;;;;2.83;1.80;;;2.50;99.90;;;;;;5002315;28;20203;-73
2023/03/11 06:14:44;;;;;;;3.20;1.73;;;2.50;99.90;;;;;;5002625;28;20184;-71
2023/03/11 06:17:10;;;;;;;3.50;1.63;;;2.60;99.90;;;;;;5002025;28;20201;-70
2023/03/11 06:19:35;;;;;;;3.77;1.93;;;2.50;99.90;;;;;;5002514;28;20264;-71
2023/03/11 06:22:01;;;;;;;4.57;1.67;;;2.50;99.90;;;;;;5001974;28;20180;-70
2023/03/11 06:24:27;;;;;;;4.00;2.53;;;2.40;99.90;;;;;;5002175;28;20198;-74
2023/03/11 06:26:52;;;;;;;3.23;1.93;;;2.60;99.90;;;;;;5001568;28;20211;-71
2023/03/11 06:29:18;;;;;;;5.93;2.23;;;2.70;99.90;;;;;;5002033;28;20183;-72
2023/03/11 06:31:43;;;;;;;2.93;1.57;;;2.60;99.90;;;;;;5002979;28;20635;-71
2023/03/11 06:34:10;;;;;;;5.50;1.50;;;2.70;99.90;;;;;;5005400;28;20194;-70
2023/03/11 06:36:36;;;;;;;3.07;1.27;;;2.80;99.90;;;;;;5005846;28;20254;-70
2023/03/11 06:39:03;;;;;;;2.00;1.47;;;2.80;99.90;;;;;;5005524;28;20847;-69
2023/03/11 06:41:28;;;;;;;3.73;1.90;;;2.80;99.90;;;;;;5005784;28;20410;-70
2023/03/11 06:43:56;;;;;;;5.60;2.03;;;2.70;99.90;;;;;;5003443;28;20434;-71
2023/03/11 06:46:22;;;;;;;3.30;1.70;;;2.60;99.90;;;;;;5005057;28;20622;-71
2023/03/11 06:48:51;;;;;;;3.57;2.00;;;2.60;99.90;;;;;;5005499;28;20410;-70
2023/03/11 06:51:18;;;;;;;6.17;2.33;;;2.60;99.90;;;;;;5005415;28;20790;-71
2023/03/11 06:53:47;;;;;;;3.97;1.80;;;2.50;99.90;;;;;;5005412;28;20521;-72
2023/03/11 06:56:13;;;;;;;7.40;2.33;;;2.50;99.90;;;;;;5004595;28;20523;-70
2023/03/11 06:58:40;;;;;;;4.10;1.57;;;2.60;99.90;;;;;;5004935;28;20422;-70
2023/03/11 07:01:14;;;;;;;6.73;2.37;;;2.70;99.90;;;;;;5005085;28;20177;-70
2023/03/11 07:03:40;;;;;;;6.37;1.67;;;2.80;99.90;;;;;;5003568;28;20425;-69
2023/03/11 07:06:12;;;;;;;5.03;1.70;;;2.90;99.90;;;;;;5005449;28;20418;-70
2023/03/11 07:08:37;;;;;;;3.57;2.07;;;3.00;99.90;;;;;;5005484;28;20836;-70
2023/03/11 07:11:28;;;;;;;2.90;1.60;;;3.00;99.90;;;;;;5003884;28;20546;-71
2023/03/11 07:13:53;;;;;;;3.97;1.80;;;3.00;99.90;;;;;;5004319;28;20203;-72
2023/03/11 07:16:25;;;;;;;4.43;2.10;;;3.00;99.90;;;;;;5003871;28;20478;-73
2023/03/11 07:18:52;;;;;;;4.23;2.63;;;3.00;99.90;;;;;;5003684;28;20188;-72
2023/03/11 07:21:20;;;;;;;5.53;1.53;;;3.00;99.90;;;;;;5005392;28;20411;-70
2023/03/11 07:23:46;;;;;;;4.83;1.60;;;3.00;99.90;;;;;;5004715;28;20415;-71
2023/03/11 07:26:13;;;;;;;8.90;2.73;;;3.10;99.90;;;;;;5003206;28;20733;-68
2023/03/11 07:28:40;;;;;;;2.67;1.60;;;3.00;99.90;;;;;;5004925;28;20426;-74
2023/03/11 07:31:07;;;;;;;2.20;1.60;;;2.90;99.90;;;;;;5004661;28;20917;-71
2023/03/11 07:33:33;;;;;;;5.60;1.80;;;3.00;99.90;;;;;;5004644;28;20419;-69
2023/03/11 07:35:58;;;;;;;3.40;1.50;;;3.00;99.90;;;;;;5004232;28;20974;-68
2023/03/11 07:38:24;;;;;;;3.90;1.50;;;3.10;99.90;;;;;;5003969;28;20203;-68
2023/03/11 07:40:58;;;;;;;2.83;1.47;;;3.20;99.90;;;;;;5003097;28;20180;-71
2023/03/11 07:43:23;;;;;;;1.90;1.50;;;3.20;99.90;;;;;;5003359;28;20200;-68
2023/03/11 07:45:50;;;;;;;7.83;2.20;;;3.30;99.90;;;;;;5004904;28;20450;-71
2023/03/11 07:48:16;;;;;;;2.23;1.40;;;3.50;99.90;;;;;;5003606;28;20219;-72
2023/03/11 07:50:41;;;;;;;4.00;1.67;;;3.40;99.90;;;;;;5003006;28;20415;-71
2023/03/11 07:53:07;;;;;;;8.50;2.67;;;3.40;99.90;;;;;;5004763;28;20415;-73
2023/03/11 07:55:33;;;;;;;6.90;3.33;;;3.50;99.90;;;;;;5004510;28;20283;-74
2023/03/11 07:57:58;;;;;;;6.23;2.50;;;3.50;99.90;;;;;;5004196;28;20328;-70
2023/03/11 08:00:24;;;;;;;3.70;1.87;;;3.60;99.90;;;;;;5003981;28;20176;-70
2023/03/11 08:02:51;;;;;;;6.33;1.93;;;3.60;99.90;;;;;;5003754;28;20176;-70
2023/03/11 08:05:19;;;;;;;3.90;1.40;;;3.60;99.90;;;;;;5003840;28;20678;-69
2023/03/11 08:07:45;;;;;;;4.67;2.20;;;3.60;99.90;;;;;;5003759;28;20941;-71
2023/03/11 08:10:11;;;;;;;4.10;1.50;;;3.50;99.90;;;;;;5004051;28;20427;-70
2023/03/11 08:12:36;;;;;;;2.47;1.53;;;3.60;99.90;;;;;;5004015;28;20595;-71
2023/03/11 08:15:02;;;;;;;5.70;1.97;;;3.60;99.90;;;;;;5004168;28;20258;-69
2023/03/11 08:17:27;;;;;;;4.70;1.50;;;3.80;99.90;;;;;;5001869;28;20471;-70
2023/03/11 08:19:53;;;;;;;2.50;1.47;;;3.80;99.90;;;;;;5003881;28;20208;-72
2023/03/11 08:22:19;;;;;;;2.53;1.40;;;3.80;99.90;;;;;;5003654;28;20176;-68
2023/03/11 08:24:44;;;;;;;8.13;1.43;;;3.80;99.90;;;;;;5003878;28;20546;-70
2023/03/11 08:27:11;;;;;;;5.37;1.70;;;3.60;99.90;;;;;;5003708;28;20433;-71
2023/03/11 08:29:36;;;;;;;3.33;1.67;;;3.80;99.90;;;;;;5003886;28;20206;-70
2023/03/11 08:32:02;;;;;;;2.77;1.40;;;3.90;99.90;;;;;;5003940;28;20893;-70
2023/03/11 08:34:28;;;;;;;2.30;1.60;;;3.90;99.90;;;;;;5003858;28;20187;-70
2023/03/11 08:36:54;;;;;;;7.23;1.97;;;4.00;99.90;;;;;;5003824;28;20467;-71
2023/03/11 08:39:19;;;;;;;3.63;1.73;;;4.10;99.90;;;;;;5003576;28;20246;-73
2023/03/11 08:41:45;;;;;;;4.20;1.80;;;4.00;99.90;;;;;;5003773;28;20662;-70
2023/03/11 08:44:10;;;;;;;8.90;2.77;;;4.10;99.90;;;;;;5003458;28;20195;-71
2023/03/11 08:46:37;;;;;;;5.37;1.80;;;4.10;99.90;;;;;;5003295;28;20204;-70
2023/03/11 08:49:04;;;;;;;3.57;1.60;;;4.20;99.90;;;;;;5003347;28;20198;-70
2023/03/11 08:51:32;;;;;;;3.97;1.73;;;4.30;99.90;;;;;;5003200;28;20415;-71
2023/03/11 08:53:59;;;;;;;2.33;1.67;;;4.30;99.90;;;;;;5002740;28;20407;-70
2023/03/11 08:56:24;;;;;;;3.97;2.10;;;4.20;99.90;;;;;;5001820;28;20637;-73
2023/03/11 08:58:50;;;;;;;3.00;1.33;;;4.10;99.90;;;;;;5003637;28;20414;-73
2023/03/11 09:01:16;;;;;;;3.40;1.77;;;3.90;99.90;;;;;;5003511;28;20651;-69
2023/03/11 09:03:42;;;;;;;4.70;2.10;;;3.70;99.90;;;;;;5002908;28;20897;-72
2023/03/11 09:06:12;;;;;;;3.73;1.97;;;3.70;99.90;;;;;;5003012;28;20454;-70
2023/03/11 09:08:38;;;;;;;2.77;1.50;;;3.90;99.90;;;;;;5003457;28;20172;-70
2023/03/11 09:11:04;;;;;;;4.23;1.73;;;3.90;99.90;;;;;;5001662;28;20481;-70
2023/03/11 09:13:30;;;;;;;4.17;2.30;;;4.10;99.90;;;;;;5001872;28;20179;-70
2023/03/11 09:15:55;;;;;;;3.60;2.20;;;4.30;99.90;;;;;;5002652;28;20724;-72
2023/03/11 09:18:21;;;;;;;3.70;1.73;;;4.20;99.90;;;;;;5003026;28;20585;-71
2023/03/11 09:20:46;;;;;;;4.90;1.87;;;4.20;99.90;;;;;;5001258;28;20201;-70
2023/03/11 09:23:15;;;;;;;7.10;1.90;;;4.20;99.90;;;;;;5003388;28;20184;-72
2023/03/11 09:25:41;;;;;;;8.00;1.77;;;4.40;99.90;;;;;;5003281;28;20176;-71
2023/03/11 09:28:07;;;;;;;7.40;2.20;;;4.30;99.90;;;;;;5003187;28;20969;-70
2023/03/11 09:30:33;;;;;;;4.10;1.90;;;4.40;99.90;;;;;;5003315;28;20790;-71
2023/03/11 09:32:58;;;;;;;3.23;1.80;;;4.60;99.90;;;;;;5001254;28;20661;-71
2023/03/11 09:35:24;;;;;;;3.83;1.70;;;4.80;99.90;;;;;;5002116;28;20206;-73
2023/03/11 09:37:50;;;;;;;2.70;1.63;;;4.90;99.90;;;;;;5001305;28;20211;-71
2023/03/11 09:40:18;;;;;;;5.07;1.93;;;4.80;99.90;;;;;;5002578;28;20355;-71
2023/03/11 09:43:05;;;;;;;3.00;1.50;;;4.70;99.90;;;;;;5003037;28;20187;-72
2023/03/11 09:45:35;;;;;;;3.93;1.83;;;5.00;99.90;;;;;;5002878;28;20411;-70
2023/03/11 09:48:27;;;;;;;4.00;2.13;;;5.00;99.90;;;;;;5002357;28;20461;-72
2023/03/11 09:51:20;;;;;;;4.77;2.20;;;5.00;99.90;;;;;;5002188;28;20866;-70
2023/03/11 09:53:53;;;;;;;5.13;1.20;;;5.00;99.90;;;;;;5002618;28;20432;-71
2023/03/11 09:56:21;;;;;;;2.73;1.67;;;5.00;99.50;;;;;;5002542;28;20461;-71
2023/03/11 09:58:54;;;;;;;2.10;1.30;;;5.10;99.30;;;;;;5001326;28;20759;-70
2023/03/11 10:01:22;;;;;;;3.77;1.97;;;5.30;99.40;;;;;;5002513;28;20734;-70
2023/03/11 10:03:51;;;;;;;2.20;1.40;;;5.20;98.90;;;;;;5002802;28;20410;-70
2023/03/11 10:06:21;;;;;;;6.53;1.63;;;5.50;98.10;;;;;;5005037;28;20481;-70
2023/03/11 10:09:23;;;;;;;2.47;1.10;;;5.70;97.60;;;;;;5006432;28;20411;-70
2023/03/11 10:11:55;;;;;;;1.53;1.20;;;6.10;97.00;;;;;;5006236;28;20422;-71
2023/03/11 10:14:32;;;;;;;2.33;1.33;;;6.30;96.70;;;;;;5006402;28;20585;-70
2023/03/11 10:17:25;;;;;;;3.80;1.50;;;6.40;96.60;;;;;;5005851;28;20484;-74
2023/03/11 10:19:58;;;;;;;5.43;2.47;;;6.30;96.40;;;;;;5006568;28;20403;-73
2023/03/11 10:22:34;;;;;;;1.80;1.37;;;6.40;97.30;;;;;;5006276;28;20425;-70
2023/03/11 10:25:14;;;;;;;4.40;1.60;;;6.50;96.50;;;;;;5006109;28;20478;-72
2023/03/11 10:27:45;;;;;;;3.87;1.47;;;6.60;96.10;;;;;;5006185;28;20434;-72
2023/03/11 10:30:28;;;;;;;5.77;1.40;;;6.40;95.40;;;;;;5006081;28;20428;-70
2023/03/11 10:33:25;;;;;;;1.70;1.00;;;6.20;95.70;;;;;;5006008;28;20448;-70
2023/03/11 10:35:55;;;;;;;2.50;1.03;;;6.00;95.40;;;;;;5003791;28;20465;-75
2023/03/11 10:38:31;;;;;;;2.23;1.10;;;5.80;95.50;;;;;;5005509;28;20431;-72
2023/03/11 10:41:02;;;;;;;2.00;0.90;;;5.90;95.10;;;;;;5006303;28;20402;-72
2023/03/11 10:43:43;;;;;;;3.03;1.30;;;6.00;94.70;;;;;;5005957;28;20468;-71
2023/03/11 10:46:24;;;;;;;2.40;1.37;;;6.20;94.30;;;;;;5006656;28;20427;-72
2023/03/11 10:48:50;;;;;;;2.97;1.50;;;6.30;94.40;;;;;;5006020;28;20856;-71
2023/03/11 10:51:30;;;;;;;1.50;0.90;;;6.40;93.70;;;;;;5005727;28;20442;-70
2023/03/11 10:53:57;;;;;;;3.00;1.13;;;6.70;93.90;;;;;;5005372;28;20211;-71
2023/03/11 10:56:34;;;;;;;3.20;1.90;;;6.80;93.50;;;;;;5005364;28;20570;-70
2023/03/11 10:59:03;;;;;;;5.57;1.23;;;7.10;93.50;;;;;;5005631;28;20495;-74
2023/03/11 11:01:29;;;;;;;2.73;1.20;;;7.10;92.30;;;;;;5005601;28;20889;-71
2023/03/11 11:03:58;;;;;;;3.53;1.53;;;6.70;93.10;;;;;;5005278;28;20672;-73
2023/03/11 11:06:26;;;;;;;1.43;1.00;;;6.80;93.80;;;;;;5004999;28;20465;-71
2023/03/11 11:09:20;;;;;;;3.30;1.60;;;7.00;93.70;;;;;;5005433;28;20437;-70
2023/03/11 11:11:59;;;;;;;2.87;1.37;;;6.70;92.80;;;;;;5005686;28;20490;-70
2023/03/11 11:14:25;;;;;;;2.87;1.30;;;6.50;93.30;;;;;;5005692;28;20413;-71
2023/03/11 11:16:51;;;;;;;1.80;0.87;;;6.60;93.40;;;;;;5002595;28;20802;-71
2023/03/11 11:19:17;;;;;;;2.30;1.50;;;6.60;93.40;;;;;;5005729;28;20172;-70
2023/03/11 11:21:52;;;;;;;2.37;1.03;;;6.80;93.20;;;;;;5008976;22;20608;-73
2023/03/11 11:24:26;;;;;;;2.23;1.17;;;7.10;92.40;;;;;;4981502;28;20429;-72
2023/03/11 11:27:11;;;;;;;5.40;1.20;;;8.30;91.80;;;;;;5000597;28;20801;-70
2023/03/11 11:29:37;;;;;;;2.80;0.80;;;9.60;89.20;;;;;;4994743;28;20424;-72
2023/03/11 11:32:17;;;;;;;2.37;1.30;;;9.30;88.80;;;;;;4976592;28;20422;-75
2023/03/11 11:34:54;;;;;;;2.50;1.27;;;11.00;85.10;;;;;;4980450;28;20185;-73
2023/03/11 11:37:20;;;;;;;2.40;1.07;;;12.20;76.80;;;;;;4956309;28;21055;-70
2023/03/11 11:39:54;;;;;;;4.23;1.50;;;14.60;68.90;;;;;;4967482;28;20430;-72
2023/03/11 11:42:22;;;;;;;2.20;1.07;;;16.00;60.50;;;;;;4952812;28;20430;-74
2023/03/11 11:44:53;;;;;;;1.80;0.90;;;16.20;55.60;;;;;;4977097;28;20522;-73
2023/03/11 11:47:29;;;;;;;1.60;1.07;;;15.50;55.50;;;;;;4978170;28;20418;-77
2023/03/11 11:49:59;;;;;;;2.13;1.03;;;14.00;55.50;;;;;;4974844;28;20410;-72
2023/03/11 11:52:32;;;;;;;1.90;1.33;;;12.20;57.20;;;;;;4976741;28;20399;-72
2023/03/11 11:55:15;;;;;;;3.67;1.30;;;10.30;61.50;;;;;;4972734;28;20417;-73
2023/03/11 11:57:41;;;;;;;2.27;1.30;;;9.40;65.60;;;;;;4973502;28;20444;-73
2023/03/11 12:00:23;;;;;;;2.20;1.33;;;9.10;67.70;;;;;;4982347;28;20952;-72
2023/03/11 12:02:58;;;;;;;2.40;1.03;;;8.60;68.70;;;;;;4983857;28;20182;-72
2023/03/11 12:05:41;;;;;;;2.80;1.30;;;7.70;71.00;;;;;;4979306;28;20793;-72
2023/03/11 12:08:15;;;;;;;1.93;1.20;;;7.90;73.20;;;;;;4979338;28;20417;-71
2023/03/11 12:10:53;;;;;;;2.20;1.07;;;7.60;73.00;;;;;;4973645;28;20822;-71
2023/03/11 12:13:44;;;;;;;2.33;1.00;;;7.80;74.40;;;;;;4986273;28;20543;-72
2023/03/11 12:16:33;;;;;;;2.73;0.90;;;10.00;72.10;;;;;;4980347;28;20439;-71
2023/03/11 12:19:02;;;;;;;6.20;1.50;;;12.00;64.10;;;;;;4973976;28;20403;-71
2023/03/11 12:21:54;;;;;;;4.43;1.37;;;12.10;61.50;;;;;;4954348;28;20465;-71
2023/03/11 12:24:40;;;;;;;3.10;1.20;;;10.50;64.00;;;;;;4981567;28;20519;-72
2023/03/11 12:27:22;;;;;;;2.10;1.50;;;9.80;67.70;;;;;;4978159;28;20485;-72
2023/03/11 12:29:55;;;;;;;3.77;1.20;;;9.10;69.10;;;;;;4982181;28;20830;-73
2023/03/11 12:32:35;;;;;;;3.70;1.23;;;8.30;71.20;;;;;;4977955;28;20834;-72
2023/03/11 12:35:09;;;;;;;1.77;1.20;;;8.50;73.10;;;;;;4957041;28;20481;-72
2023/03/11 12:37:35;;;;;;;2.93;1.27;;;8.50;72.00;;;;;;4984718;28;20478;-73
2023/03/11 12:40:40;;;;;;;2.40;1.30;;;8.20;72.10;;;;;;4964800;28;20439;-72
2023/03/11 12:43:34;;;;;;;2.67;1.30;;;8.30;72.60;;;;;;4977103;28;20929;-72
2023/03/11 12:46:04;;;;;;;3.23;1.40;;;8.20;73.50;;;;;;4983516;28;20402;-73
2023/03/11 12:48:41;;;;;;;2.70;1.00;;;8.40;73.40;;;;;;4980858;28;20412;-71
2023/03/11 12:51:38;;;;;;;3.13;1.37;;;8.60;73.40;;;;;;4971037;28;20948;-71
2023/03/11 12:54:29;;;;;;;1.77;1.10;;;10.50;69.00;;;;;;4984674;28;20418;-70
2023/03/11 12:57:02;;;;;;;5.20;1.50;;;10.20;66.20;;;;;;4967507;28;20502;-72
2023/03/11 12:59:31;;;;;;;3.63;1.33;;;11.00;66.10;;;;;;4968993;28;20450;-72
2023/03/11 13:02:19;;;;;;;2.00;1.17;;;11.50;63.50;;;;;;4973636;28;20442;-73
2023/03/11 13:05:06;;;;;;;3.57;2.60;;;10.40;63.60;;;;;;4972368;28;20922;-72